logo
Search for airport 
image banner adimage banner adimage banner ad
image banner ad

EDRF - Bad Duerkheim

Located in Bad Duerkheim, Germany

ICAO - EDRF, IATA -

Data provided by Airmate  

General information

Coordinates: N49°28'23" E8°11'47"
Elevation is 351 feet MSL.
Magnetic variation is 2.0000° East
View others Airports in Rhineland-Palatinate

Operational data

Special qualification required
Current time UTC:
Current local time:
Weather at : EDFM - Mannheim City ( 23 km )
METAR: EDFM 231820Z 22005KT 150V260 9999 SCT017 23/19 Q1017
TAF: TAF EDFM 231700Z 2318/2321 23007KT 9999 BKN030 PROB30 TEMPO 2318/2319 4000 TSRA BKN025CB
View NOTAMs / SUP AIP / TFR affecting this airport [VIEW]
Communications frequencies: [VIEW]

Runways:

RWY identifierQFULength (ft)Width (ft)SurfaceLDA (ft)
0877°196966ASPH1969
26257°196966ASPH1575

Airport contact information

Address: Bad Duerkheim Germany

Other aviation service providers

Aviation club (not for profit)

Flugsportverein Bad Dürkheim E.V.

Flugsportverein Bad Dürkheim E.V.
info@edrf.de+49632261500
Rated:
View ratings:
[VIEW]

Non aviation service providers

Restaurant

Restaurant Cockpit

Restaurant Cockpit

Satellite view of EDRF